DEDEA EDLE-ZZZZ
Flight info
| Callsign | DEDEA |
|---|---|
| Flight time | N/A |
| Altitude | |
| Route | EDLW/06 VFR |
| Aircraft | DA40 |
Departure
| Time | 2026-05-05 17:19 |
|---|---|
| Airport | Essen-Mülheim Airport (EDLE) |
Arrival
| Time | N/A |
|---|---|
| Airport | ZZZZ |
| Time | Latitude | Longitude | Altitude | Speed | Heading |
|---|---|---|---|---|---|
| 2026-05-05 17:13 | 51.40245 | 6.93878 | 423 ft | 0 kts | 27° |
| 2026-05-05 17:15 | 51.40266 | 6.93874 | 427 ft | 11 kts | 328° |
| 2026-05-05 17:15 | 51.40244 | 6.93689 | 422 ft | 25 kts | 247° |
| 2026-05-05 17:15 | 51.40319 | 6.93558 | 417 ft | 20 kts | 0° |
| 2026-05-05 17:15 | 51.40371 | 6.93531 | 414 ft | 0 kts | 264° |
| 2026-05-05 17:16 | 51.40369 | 6.93520 | 413 ft | 6 kts | 250° |
| 2026-05-05 17:17 | 51.40329 | 6.93367 | 409 ft | 22 kts | 246° |
| 2026-05-05 17:17 | 51.40261 | 6.93103 | 404 ft | 30 kts | 249° |
| 2026-05-05 17:17 | 51.40156 | 6.92896 | 406 ft | 17 kts | 200° |
| 2026-05-05 17:17 | 51.40037 | 6.92879 | 409 ft | 14 kts | 148° |
| 2026-05-05 17:18 | 51.40028 | 6.92918 | 411 ft | 0 kts | 66° |
| 2026-05-05 17:18 | 51.40078 | 6.93100 | 415 ft | 51 kts | 62° |
| 2026-05-05 17:19 | 51.40262 | 6.93768 | 632 ft | 69 kts | 59° |
| 2026-05-05 17:19 | 51.40447 | 6.94491 | 933 ft | 68 kts | 59° |
| 2026-05-05 17:19 | 51.40646 | 6.95162 | 1279 ft | 71 kts | 58° |
| 2026-05-05 17:19 | 51.41099 | 6.95224 | 1377 ft | 99 kts | 334° |
| 2026-05-05 17:20 | 51.41282 | 6.94144 | 1416 ft | 134 kts | 244° |
| 2026-05-05 17:20 | 51.40795 | 6.92721 | 1179 ft | 145 kts | 246° |
| 2026-05-05 17:20 | 51.40170 | 6.91950 | 832 ft | 119 kts | 156° |
| 2026-05-05 17:20 | 51.40026 | 6.92897 | 465 ft | 95 kts | 59° |
| 2026-05-05 17:21 | 51.40265 | 6.93760 | 435 ft | 76 kts | 58° |
| 2026-05-05 17:21 | 51.40479 | 6.94528 | 753 ft | 77 kts | 60° |
| 2026-05-05 17:21 | 51.40696 | 6.95316 | 1006 ft | 75 kts | 61° |
| 2026-05-05 17:22 | 51.41188 | 6.94548 | 1141 ft | 109 kts | 274° |
| 2026-05-05 17:22 | 51.41096 | 6.93297 | 1247 ft | 116 kts | 269° |
| 2026-05-05 17:22 | 51.41058 | 6.92027 | 1312 ft | 106 kts | 298° |
| 2026-05-05 17:22 | 51.41648 | 6.91568 | 1287 ft | 106 kts | 14° |
| 2026-05-05 17:23 | 51.42181 | 6.92293 | 1440 ft | 102 kts | 56° |
| 2026-05-05 17:23 | 51.42370 | 6.93419 | 1472 ft | 110 kts | 79° |
| 2026-05-05 17:23 | 51.42217 | 6.94625 | 1459 ft | 120 kts | 126° |
| 2026-05-05 17:23 | 51.41374 | 6.94867 | 1356 ft | 134 kts | 197° |
| 2026-05-05 17:24 | 51.40879 | 6.93673 | 1291 ft | 138 kts | 253° |
| 2026-05-05 17:24 | 51.40643 | 6.92256 | 1274 ft | 125 kts | 289° |
| 2026-05-05 17:24 | 51.41230 | 6.91547 | 1169 ft | 113 kts | 8° |
| 2026-05-05 17:24 | 51.41806 | 6.92367 | 1157 ft | 115 kts | 73° |
| 2026-05-05 17:25 | 51.41306 | 6.93320 | 1153 ft | 134 kts | 173° |
| 2026-05-05 17:25 | 51.40989 | 6.93246 | 1070 ft | 141 kts | 205° |
| 2026-05-05 17:25 | 51.40994 | 6.91582 | 1035 ft | 111 kts | 12° |
| 2026-05-05 17:25 | 51.41241 | 6.92645 | 1111 ft | 109 kts | 75° |
| 2026-05-05 17:26 | 51.41068 | 6.93806 | 1063 ft | 132 kts | 145° |
| 2026-05-05 17:26 | 51.40460 | 6.92994 | 852 ft | 139 kts | 261° |
| 2026-05-05 17:26 | 51.40720 | 6.91887 | 1042 ft | 108 kts | 351° |
| 2026-05-05 17:26 | 51.41187 | 6.92668 | 1078 ft | 107 kts | 83° |
| 2026-05-05 17:27 | 51.40608 | 6.92888 | 833 ft | 140 kts | 254° |
| 2026-05-05 17:27 | 51.40199 | 6.91839 | 770 ft | 102 kts | 147° |
| 2026-05-05 17:27 | 51.39967 | 6.92686 | 486 ft | 78 kts | 57° |
| 2026-05-05 17:27 | 51.40183 | 6.93429 | 421 ft | 66 kts | 56° |
| 2026-05-05 17:28 | 51.40328 | 6.93986 | 433 ft | 48 kts | 67° |
| 2026-05-05 17:28 | 51.40412 | 6.94291 | 439 ft | 43 kts | 64° |
| 2026-05-05 17:28 | 51.40521 | 6.94703 | 435 ft | 36 kts | 68° |
| 2026-05-05 17:28 | 51.40628 | 6.94886 | 436 ft | 13 kts | 332° |
| 2026-05-05 17:29 | 51.40656 | 6.94740 | 438 ft | 6 kts | 293° |
| 2026-05-05 17:29 | 51.40661 | 6.94722 | 433 ft | 0 kts | 290° |
| 2026-05-05 17:31 | 51.40663 | 6.94592 | 428 ft | 22 kts | 243° |
| 2026-05-05 17:31 | 51.40595 | 6.94345 | 426 ft | 29 kts | 249° |
| 2026-05-05 17:31 | 51.40631 | 6.94161 | 418 ft | 21 kts | 332° |
| 2026-05-05 17:32 | 51.40633 | 6.93981 | 409 ft | 20 kts | 237° |
| 2026-05-05 17:32 | 51.40563 | 6.93730 | 407 ft | 28 kts | 251° |
| 2026-05-05 17:32 | 51.40453 | 6.93546 | 408 ft | 23 kts | 179° |
| 2026-05-05 17:32 | 51.40291 | 6.93561 | 418 ft | 25 kts | 176° |
| 2026-05-05 17:33 | 51.40171 | 6.93644 | 420 ft | 15 kts | 116° |
| 2026-05-05 17:33 | 51.40010 | 6.93657 | 419 ft | 36 kts | 215° |
| 2026-05-05 17:33 | 51.39835 | 6.93469 | 415 ft | 18 kts | 213° |